Broadacre, Colorado
Current Conditions -  °F | °C
As of 9:53 PM on Saturday 25 Oct 2014 (Local Time) from KPUB Reporting Station
Clear Clear  
Wind Chill: 53°   Ceiling: Unl
Heat Index: 53°   Visibility: 10mi
Dew Point: 29°   Wind: 7mph
Humidity: 40%   Direction: 10°N
Pressure: 29.99"   Gusts: NA
Location:  38.0104°N, 104.392°W
Report Text: KPUB 260353Z 01006KT 10SM CLR 12/M02 A2999 RMK AO2 SLP115 T01171017
Loading
Personal Weather Stations






























Interactive Weather Map
Tropical Storm Tracking
New forecast layout! Learn more

10-Day Weather Forecast

Advertisements
Track Severe Weather on mobile